createdAt,value
2018-09-13T00:00:51.907Z,13.80
2018-09-13T00:01:51.876Z,15.50
2018-09-13T00:02:51.850Z,16.60
2018-09-13T00:03:51.825Z,18.60
2018-09-13T00:04:51.798Z,16.50
2018-09-13T00:05:51.830Z,19.00
2018-09-13T00:06:51.745Z,12.80
2018-09-13T00:07:51.725Z,11.90
2018-09-13T00:08:51.692Z,16.00
2018-09-13T00:09:51.664Z,12.60
2018-09-13T00:10:51.638Z,16.70
2018-09-13T00:11:51.614Z,16.20
2018-09-13T00:12:51.585Z,17.10
2018-09-13T00:13:51.559Z,13.20
2018-09-13T00:14:51.532Z,15.30
2018-09-13T00:15:51.513Z,16.60
2018-09-13T00:16:51.479Z,12.80
2018-09-13T00:17:51.451Z,14.50
2018-09-13T00:18:51.428Z,15.90
2018-09-13T00:19:51.396Z,19.30
2018-09-13T00:20:51.380Z,14.30
2018-09-13T00:21:51.342Z,13.00
2018-09-13T00:22:51.316Z,15.70
2018-09-13T00:23:51.291Z,12.60
2018-09-13T00:24:51.265Z,14.00
2018-09-13T00:25:51.237Z,16.10
2018-09-13T00:26:51.209Z,14.50
2018-09-13T00:27:51.182Z,16.30
2018-09-13T00:28:51.159Z,17.30
2018-09-13T00:29:51.129Z,15.40
2018-09-13T00:30:51.103Z,17.30
2018-09-13T00:31:51.077Z,15.20
2018-09-13T00:32:51.054Z,13.80
2018-09-13T00:33:51.021Z,14.50
2018-09-13T00:34:50.996Z,17.90
2018-09-13T00:35:50.969Z,16.40
2018-09-13T00:36:50.942Z,15.80
2018-09-13T00:37:50.915Z,17.60
2018-09-13T00:38:50.888Z,15.10
2018-09-13T00:39:50.862Z,18.00
2018-09-13T00:40:50.835Z,16.60
2018-09-13T00:41:50.810Z,17.10
2018-09-13T00:42:50.784Z,20.60
2018-09-13T00:43:50.758Z,21.40
2018-09-13T00:44:50.729Z,19.10
2018-09-13T00:45:50.706Z,17.20
2018-09-13T00:46:50.676Z,20.20
2018-09-13T00:47:50.648Z,13.70
2018-09-13T00:48:50.622Z,11.70
2018-09-13T00:49:50.594Z,16.50
2018-09-13T00:50:50.569Z,15.70
2018-09-13T00:51:50.541Z,20.70
2018-09-13T00:52:50.520Z,18.80
2018-09-13T00:53:50.487Z,16.40
2018-09-13T00:54:50.462Z,15.40
2018-09-13T00:55:50.434Z,21.40
2018-09-13T00:56:50.406Z,21.50
2018-09-13T00:57:50.383Z,16.50
2018-09-13T00:58:50.354Z,16.80
2018-09-13T00:59:50.327Z,21.60
2018-09-13T01:00:50.300Z,20.10
2018-09-13T01:01:50.273Z,15.90
2018-09-13T01:02:50.246Z,18.20
2018-09-13T01:03:50.219Z,18.80
2018-09-13T01:04:50.193Z,18.70
2018-09-13T01:05:50.167Z,16.50
2018-09-13T01:06:50.139Z,20.70
2018-09-13T01:07:50.114Z,20.60
2018-09-13T01:08:50.086Z,26.10
2018-09-13T01:09:50.058Z,18.40
2018-09-13T01:10:50.035Z,19.10
2018-09-13T01:11:50.005Z,25.30
2018-09-13T01:12:49.979Z,21.50
2018-09-13T01:13:49.951Z,18.00
2018-09-13T01:14:49.924Z,21.30
2018-09-13T01:15:49.899Z,23.60
2018-09-13T01:16:49.882Z,17.00
2018-09-13T01:17:49.847Z,18.20
2018-09-13T01:18:49.829Z,17.80
2018-09-13T01:19:49.840Z,20.90
2018-09-13T01:20:49.765Z,19.30
2018-09-13T01:21:49.737Z,19.50
2018-09-13T01:22:49.709Z,21.30
2018-09-13T01:23:49.688Z,34.20
2018-09-13T01:24:49.658Z,23.60
2018-09-13T01:25:49.631Z,24.20
2018-09-13T01:26:49.605Z,21.90
2018-09-13T01:27:49.577Z,20.00
2018-09-13T01:28:49.551Z,27.40
2018-09-13T01:29:49.523Z,23.00
2018-09-13T01:30:49.504Z,25.60
2018-09-13T01:31:49.474Z,21.80
2018-09-13T01:32:49.443Z,27.90
2018-09-13T01:33:49.418Z,26.80
2018-09-13T01:34:49.390Z,20.80
2018-09-13T01:35:49.365Z,26.00
2018-09-13T01:36:49.344Z,27.00
2018-09-13T01:37:49.315Z,28.20
2018-09-13T01:38:49.290Z,22.70
2018-09-13T01:39:49.258Z,26.00
2018-09-13T01:40:49.532Z,22.60
2018-09-13T01:41:49.201Z,24.00
2018-09-13T01:42:49.175Z,22.30
2018-09-13T01:43:49.149Z,23.40
2018-09-13T01:44:49.123Z,21.60
2018-09-13T01:45:49.095Z,25.20
2018-09-13T01:46:49.067Z,25.70
2018-09-13T01:47:49.043Z,25.30
2018-09-13T01:48:49.017Z,24.50
2018-09-13T01:49:48.988Z,23.20
2018-09-13T01:50:48.963Z,26.00
2018-09-13T01:51:48.936Z,29.40
2018-09-13T01:52:48.910Z,23.90
2018-09-13T01:53:48.883Z,24.80
2018-09-13T01:54:48.854Z,25.30
2018-09-13T01:55:48.826Z,26.50
2018-09-13T01:56:48.803Z,25.00
2018-09-13T01:57:48.773Z,22.60
2018-09-13T01:58:48.746Z,29.60
2018-09-13T01:59:48.719Z,25.10
2018-09-13T02:00:48.693Z,31.10
2018-09-13T02:01:48.668Z,27.80
2018-09-13T02:02:48.639Z,25.70
2018-09-13T02:03:48.913Z,26.50
2018-09-13T02:04:48.587Z,26.70
2018-09-13T02:05:48.562Z,29.70
2018-09-13T02:06:48.531Z,25.70
2018-09-13T02:07:48.505Z,21.50
2018-09-13T02:08:48.478Z,23.30
2018-09-13T02:09:48.459Z,23.60
2018-09-13T02:10:48.424Z,25.20
2018-09-13T02:11:48.399Z,25.00
2018-09-13T02:12:48.371Z,18.60
2018-09-13T02:13:48.343Z,24.10
2018-09-13T02:14:48.321Z,18.10
2018-09-13T02:15:48.292Z,24.20
2018-09-13T02:16:48.263Z,22.10
2018-09-13T02:17:48.235Z,21.70
2018-09-13T02:18:48.209Z,21.70
2018-09-13T02:19:48.182Z,21.30
2018-09-13T02:20:48.165Z,26.00
2018-09-13T02:21:48.129Z,25.10
2018-09-13T02:22:48.103Z,26.00
2018-09-13T02:23:48.075Z,21.50
2018-09-13T02:24:48.050Z,24.40
2018-09-13T02:25:48.024Z,22.40
2018-09-13T02:26:47.994Z,22.80
2018-09-13T02:27:47.975Z,21.60
2018-09-13T02:28:47.941Z,25.60
2018-09-13T02:29:47.916Z,23.70
2018-09-13T02:30:47.886Z,25.70
2018-09-13T02:31:47.861Z,23.80
2018-09-13T02:32:47.835Z,19.50
2018-09-13T02:33:47.806Z,22.80
2018-09-13T02:34:47.780Z,20.80
2018-09-13T02:35:47.752Z,23.70
2018-09-13T02:36:47.726Z,19.50
2018-09-13T02:37:47.706Z,19.00
2018-09-13T02:38:47.672Z,20.30
2018-09-13T02:39:47.647Z,19.70
2018-09-13T02:40:47.619Z,22.20
2018-09-13T02:41:47.594Z,25.70
2018-09-13T02:42:47.566Z,30.70
2018-09-13T02:43:47.539Z,23.20
2018-09-13T02:44:47.513Z,25.00
2018-09-13T02:45:47.492Z,23.60
2018-09-13T02:46:47.461Z,23.60
2018-09-13T02:47:47.439Z,23.70
2018-09-13T02:48:47.407Z,21.00
2018-09-13T02:49:47.378Z,27.10
2018-09-13T02:50:47.360Z,20.50
2018-09-13T02:51:47.326Z,23.70
2018-09-13T02:52:47.300Z,21.10
2018-09-13T02:53:47.273Z,20.20
2018-09-13T02:54:47.247Z,20.30
2018-09-13T02:55:47.218Z,24.30
2018-09-13T02:56:47.190Z,21.10
2018-09-13T02:57:47.165Z,18.80
2018-09-13T02:58:47.137Z,22.60
2018-09-13T02:59:47.111Z,19.90
2018-09-13T03:00:47.084Z,25.90
2018-09-13T03:01:47.058Z,21.20
2018-09-13T03:02:47.034Z,20.10
2018-09-13T03:03:47.005Z,18.70
2018-09-13T03:04:46.977Z,19.80
2018-09-13T03:05:46.950Z,21.50
2018-09-13T03:06:46.924Z,18.10
2018-09-13T03:07:46.897Z,18.60
2018-09-13T03:08:46.880Z,24.00
2018-09-13T03:09:46.843Z,21.20
2018-09-13T03:10:46.817Z,22.30
2018-09-13T03:11:46.790Z,18.60
2018-09-13T03:12:46.764Z,21.60
2018-09-13T03:13:46.737Z,17.50
2018-09-13T03:14:46.760Z,17.40
2018-09-13T03:15:46.684Z,18.60
2018-09-13T03:16:46.656Z,21.50
2018-09-13T03:17:46.629Z,22.40
2018-09-13T03:18:46.605Z,18.40
2018-09-13T03:19:46.577Z,20.50
2018-09-13T03:20:46.550Z,20.00
2018-09-13T03:21:46.527Z,21.40
2018-09-13T03:22:46.495Z,22.10
2018-09-13T03:23:46.470Z,20.00
2018-09-13T03:24:46.442Z,18.60
2018-09-13T03:25:46.418Z,30.80
2018-09-13T03:26:46.400Z,27.10
2018-09-13T03:27:46.368Z,22.30
2018-09-13T03:28:46.336Z,19.40
2018-09-13T03:29:46.308Z,17.80
2018-09-13T03:30:46.283Z,22.70
2018-09-13T03:31:46.257Z,22.40
2018-09-13T03:32:46.230Z,24.80
2018-09-13T03:33:46.203Z,24.00
2018-09-13T03:34:46.184Z,24.00
2018-09-13T03:35:46.149Z,27.90
2018-09-13T03:36:46.123Z,20.40
2018-09-13T03:37:46.099Z,25.90
2018-09-13T03:38:46.070Z,20.30
2018-09-13T03:39:46.043Z,27.50
2018-09-13T03:40:46.015Z,20.50
2018-09-13T03:41:45.988Z,23.30
2018-09-13T03:42:45.962Z,27.70
2018-09-13T03:43:45.935Z,21.90
2018-09-13T03:44:45.910Z,21.70
2018-09-13T03:45:45.931Z,23.80
2018-09-13T03:46:45.855Z,26.50
2018-09-13T03:47:45.829Z,28.60
2018-09-13T03:48:45.803Z,25.00
2018-09-13T03:49:45.775Z,23.60
2018-09-13T03:50:45.748Z,25.30
2018-09-13T03:51:45.724Z,25.00
2018-09-13T03:52:45.700Z,24.90
2018-09-13T03:53:45.669Z,27.10
2018-09-13T03:54:45.641Z,29.80
2018-09-13T03:55:45.616Z,27.90
2018-09-13T03:56:45.588Z,28.60
2018-09-13T03:57:45.562Z,29.20
2018-09-13T03:58:45.537Z,25.70
2018-09-13T03:59:45.508Z,31.80
2018-09-13T04:00:45.483Z,28.70
2018-09-13T04:01:45.453Z,35.00
2018-09-13T04:02:45.433Z,29.20
2018-09-13T04:03:45.403Z,31.10
2018-09-13T04:04:45.375Z,29.40
2018-09-13T04:05:45.359Z,29.70
2018-09-13T04:06:45.318Z,35.10
2018-09-13T04:07:45.292Z,31.40
2018-09-13T04:08:45.265Z,27.50
2018-09-13T04:09:45.237Z,33.20
2018-09-13T04:10:45.214Z,32.60
2018-09-13T04:11:45.185Z,31.50
2018-09-13T04:12:45.159Z,30.10
2018-09-13T04:13:45.129Z,36.30
2018-09-13T04:14:45.107Z,35.60
2018-09-13T04:15:45.076Z,36.20
2018-09-13T04:16:45.067Z,37.30
2018-09-13T04:17:45.021Z,41.00
2018-09-13T04:18:45.290Z,41.00
2018-09-13T04:19:44.969Z,36.50
2018-09-13T04:20:44.940Z,41.10
2018-09-13T04:21:44.913Z,47.00
2018-09-13T04:22:44.915Z,42.20
2018-09-13T04:23:44.863Z,45.30
2018-09-13T04:24:44.832Z,42.90
2018-09-13T04:25:44.803Z,48.20
2018-09-13T04:26:44.777Z,43.80
2018-09-13T04:27:44.757Z,47.40
2018-09-13T04:28:44.735Z,43.30
2018-09-13T04:29:44.696Z,49.70
2018-09-13T04:30:44.667Z,50.00
2018-09-13T04:31:44.645Z,43.50
2018-09-13T04:32:44.614Z,44.70
2018-09-13T04:33:44.585Z,54.90
2018-09-13T04:34:44.559Z,44.60
2018-09-13T04:35:44.624Z,43.20
2018-09-13T04:36:44.505Z,43.80
2018-09-13T04:37:44.481Z,44.20
2018-09-13T04:38:44.450Z,46.00
2018-09-13T04:39:44.425Z,47.10
2018-09-13T04:40:44.396Z,47.70
2018-09-13T04:41:44.373Z,46.20
2018-09-13T04:42:44.341Z,53.40
2018-09-13T04:43:44.322Z,46.40
2018-09-13T04:44:44.287Z,44.90
2018-09-13T04:45:44.463Z,43.90
2018-09-13T04:46:44.231Z,48.20
2018-09-13T04:47:44.204Z,47.10
2018-09-13T04:48:44.177Z,54.70
2018-09-13T04:49:44.149Z,49.60
2018-09-13T04:50:44.123Z,52.10
2018-09-13T04:51:44.096Z,54.00
2018-09-13T04:52:44.070Z,56.90
2018-09-13T04:53:44.049Z,60.80
2018-09-13T04:54:44.017Z,52.00
2018-09-13T04:55:43.989Z,54.60
2018-09-13T04:56:43.959Z,53.30
2018-09-13T04:57:43.931Z,53.20
2018-09-13T04:58:43.907Z,56.40
2018-09-13T04:59:44.130Z,49.10
2018-09-13T05:00:43.857Z,50.90
2018-09-13T05:01:43.821Z,48.60
2018-09-13T05:02:43.795Z,55.40
2018-09-13T05:03:43.770Z,63.40
2018-09-13T05:04:43.739Z,60.40
2018-09-13T05:05:43.712Z,58.90
2018-09-13T05:06:43.788Z,57.00
2018-09-13T05:07:43.877Z,60.50
2018-09-13T05:08:43.633Z,56.90
2018-09-13T05:09:43.605Z,62.70
2018-09-13T05:10:43.575Z,64.40
2018-09-13T05:11:43.548Z,68.10
2018-09-13T05:12:43.537Z,55.50
2018-09-13T05:13:43.498Z,63.50
2018-09-13T05:14:43.468Z,74.50
2018-09-13T05:15:43.440Z,75.70
2018-09-13T05:16:43.411Z,68.00
2018-09-13T05:17:43.388Z,65.50
2018-09-13T05:18:43.357Z,65.40
2018-09-13T05:19:43.328Z,65.10
2018-09-13T05:20:43.301Z,65.80
2018-09-13T05:21:43.276Z,73.50
2018-09-13T05:22:43.246Z,78.40
2018-09-13T05:23:43.219Z,81.30
2018-09-13T05:24:43.195Z,77.40
2018-09-13T05:25:43.163Z,79.30
2018-09-13T05:26:43.139Z,75.90
2018-09-13T05:27:43.108Z,79.00
2018-09-13T05:28:43.082Z,74.20
2018-09-13T05:29:43.054Z,70.80
2018-09-13T05:30:43.025Z,80.10
2018-09-13T05:31:43.059Z,81.60
2018-09-13T05:32:42.982Z,88.90
2018-09-13T05:33:42.944Z,80.90
2018-09-13T05:34:42.917Z,86.10
2018-09-13T05:35:42.889Z,71.70
2018-09-13T05:36:42.863Z,91.60
2018-09-13T05:37:42.835Z,88.60
2018-09-13T05:38:42.833Z,89.70
2018-09-13T05:39:42.782Z,83.40
2018-09-13T05:40:42.752Z,83.20
2018-09-13T05:41:42.928Z,81.30
2018-09-13T05:42:42.699Z,86.00
2018-09-13T05:43:42.671Z,89.30
2018-09-13T05:44:42.773Z,79.00
2018-09-13T05:45:42.617Z,66.20
2018-09-13T05:46:42.589Z,66.20
2018-09-13T05:47:42.563Z,61.50
2018-09-13T05:48:42.538Z,56.10
2018-09-13T05:49:42.509Z,54.10
2018-09-13T05:50:42.484Z,46.80
2018-09-13T05:51:42.456Z,42.40
2018-09-13T05:52:42.432Z,41.10
2018-09-13T05:53:42.405Z,36.50
2018-09-13T05:54:42.388Z,30.80
2018-09-13T05:55:42.359Z,33.70
2018-09-13T05:56:42.324Z,31.80
2018-09-13T05:57:42.297Z,30.20
2018-09-13T05:58:42.272Z,26.60
2018-09-13T05:59:42.246Z,23.30
2018-09-13T06:00:42.220Z,29.60
2018-09-13T06:01:42.195Z,24.20
2018-09-13T06:02:42.169Z,21.30
2018-09-13T06:03:42.345Z,20.30
2018-09-13T06:04:42.117Z,17.10
2018-09-13T06:05:42.091Z,19.60
2018-09-13T06:06:42.066Z,18.20
2018-09-13T06:07:42.041Z,23.30
2018-09-13T06:08:42.016Z,18.30
2018-09-13T06:09:41.993Z,16.40
2018-09-13T06:10:41.965Z,19.40
2018-09-13T06:11:41.940Z,19.70
2018-09-13T06:12:41.915Z,17.50
2018-09-13T06:13:42.021Z,21.40
2018-09-13T06:14:41.866Z,15.70
2018-09-13T06:15:41.844Z,17.00
2018-09-13T06:16:41.817Z,16.50
2018-09-13T06:17:41.791Z,16.00
2018-09-13T06:18:41.970Z,16.50
2018-09-13T06:19:41.757Z,19.50
2018-09-13T06:20:41.921Z,19.80
2018-09-13T06:21:41.896Z,15.50
2018-09-13T06:22:41.872Z,17.30
2018-09-13T06:23:41.848Z,19.70
2018-09-13T06:25:23.976Z,14.00
2018-09-13T06:26:23.963Z,15.30
2018-09-13T06:27:23.928Z,16.60
2018-09-13T06:28:23.905Z,12.90
2018-09-13T06:29:23.904Z,14.10
2018-09-13T06:30:23.654Z,14.90
2018-09-13T06:31:23.835Z,18.10
2018-09-13T06:32:23.608Z,14.70
2018-09-13T06:33:23.788Z,15.90
2018-09-13T06:34:23.561Z,18.90
2018-09-13T06:35:23.740Z,15.50
2018-09-13T06:36:23.606Z,18.10
2018-09-13T06:37:23.695Z,16.80
2018-09-13T06:38:23.551Z,15.90
2018-09-13T06:39:23.447Z,20.50
2018-09-13T06:40:23.626Z,18.70
2018-09-13T06:41:23.607Z,16.80
2018-09-13T06:42:23.614Z,17.60
2018-09-13T06:43:24.413Z,18.20
2018-09-13T06:44:23.536Z,17.30
2018-09-13T06:45:23.514Z,18.80
2018-09-13T06:46:23.490Z,14.60
2018-09-13T06:47:23.473Z,16.70
2018-09-13T06:48:23.454Z,13.00
2018-09-13T06:49:23.438Z,14.80
2018-09-13T06:50:23.199Z,14.80
2018-09-13T06:51:26.204Z,18.20
2018-09-13T06:52:23.359Z,16.20
2018-09-13T06:53:23.334Z,16.20
2018-09-13T06:54:23.314Z,15.30
2018-09-13T06:55:23.090Z,16.80
2018-09-13T07:05:31.959Z,18.30
2018-09-13T07:06:31.034Z,17.40
2018-09-13T07:07:31.012Z,20.70
2018-09-13T07:08:30.991Z,17.70
2018-09-13T07:09:30.968Z,14.40
2018-09-13T07:10:30.946Z,16.70
2018-09-13T07:11:30.976Z,18.20
2018-09-13T07:12:30.913Z,14.60
2018-09-13T07:13:30.890Z,17.70
2018-09-13T07:14:31.064Z,15.90
2018-09-13T07:15:30.849Z,16.10
2018-09-13T07:16:30.821Z,18.00
2018-09-13T07:17:30.804Z,18.30
2018-09-13T07:18:30.781Z,19.70
2018-09-13T07:19:30.762Z,17.30
2018-09-13T07:20:30.940Z,20.00
2018-09-13T07:21:30.718Z,16.40
2018-09-13T07:22:30.697Z,18.70
2018-09-13T07:23:30.720Z,18.80
2018-09-13T07:24:33.496Z,19.40
2018-09-13T07:25:30.636Z,23.40
2018-09-13T07:26:30.820Z,17.80
2018-09-13T07:32:25.880Z,20.90
2018-09-13T07:33:25.863Z,19.70
2018-09-13T07:34:25.636Z,22.20
2018-09-13T07:35:25.617Z,18.20
2018-09-13T07:36:25.800Z,20.30
2018-09-13T07:37:25.780Z,20.50
2018-09-13T07:38:25.558Z,18.70
2018-09-13T07:40:07.894Z,23.30
2018-09-13T07:41:07.875Z,23.30
2018-09-13T07:42:07.657Z,21.50
2018-09-13T07:43:07.635Z,24.00
2018-09-13T07:44:07.618Z,28.30
2018-09-13T07:45:07.594Z,20.30
2018-09-13T07:46:49.938Z,19.50
2018-09-13T07:47:49.716Z,19.30
2018-09-13T07:48:49.693Z,22.00
2018-09-13T07:49:49.974Z,19.70
2018-09-13T07:50:49.652Z,25.80
2018-09-13T07:57:27.882Z,23.80
2018-09-13T07:58:26.853Z,21.40
2018-09-13T07:59:26.834Z,24.90
2018-09-13T08:00:26.815Z,20.80
2018-09-13T08:04:15.621Z,20.60
2018-09-13T08:05:15.600Z,18.00
2018-09-13T08:06:15.380Z,24.90
2018-09-13T08:07:15.561Z,29.20
2018-09-13T08:09:01.533Z,23.30
2018-09-13T08:09:57.684Z,18.50
2018-09-13T08:10:57.661Z,22.00
2018-09-13T08:11:57.524Z,18.90
2018-09-13T08:12:57.427Z,16.50
2018-09-13T08:18:53.912Z,19.50
2018-09-13T08:19:52.476Z,21.70
2018-09-13T08:20:52.657Z,16.90
2018-09-13T08:21:52.454Z,19.10
2018-09-13T08:22:52.632Z,20.20
2018-09-13T08:23:52.607Z,14.80
2018-09-13T08:24:52.589Z,15.20
2018-09-13T08:26:34.728Z,14.90
2018-09-13T08:31:05.492Z,17.90
2018-09-13T08:32:05.270Z,19.80
2018-09-13T08:33:47.611Z,16.80
2018-09-13T08:34:47.881Z,18.70
2018-09-13T08:35:47.573Z,22.00
2018-09-13T08:36:47.353Z,18.60
2018-09-13T08:37:47.333Z,17.80
2018-09-13T08:38:47.313Z,17.20
2018-09-13T08:39:47.315Z,21.20
2018-09-13T08:40:47.281Z,15.50
2018-09-13T08:41:47.259Z,16.50
2018-09-13T08:42:47.241Z,18.30
2018-09-13T08:43:47.231Z,21.80
2018-09-13T08:44:47.206Z,19.50
2018-09-13T08:45:47.186Z,17.90
2018-09-13T08:46:47.167Z,21.40
2018-09-13T08:47:47.157Z,16.30
2018-09-13T08:48:47.134Z,18.60
2018-09-13T08:49:47.115Z,18.30
2018-09-13T08:50:47.100Z,18.50
2018-09-13T08:51:47.080Z,20.80
2018-09-13T08:53:29.420Z,18.30
2018-09-13T08:54:29.201Z,19.00
2018-09-13T08:55:29.183Z,15.10
2018-09-13T08:56:29.165Z,19.50
2018-09-13T08:57:29.147Z,23.80
2018-09-13T08:58:29.128Z,15.70
2018-09-13T08:59:30.328Z,17.60
2018-09-13T09:00:29.301Z,14.00
2018-09-13T09:13:25.970Z,15.00
2018-09-13T09:14:25.728Z,17.30
2018-09-13T09:15:25.903Z,13.20
2018-09-13T09:16:25.883Z,13.20
2018-09-13T09:17:25.862Z,10.90
2018-09-13T09:18:25.714Z,16.10
2018-09-13T09:19:25.824Z,13.90
2018-09-13T09:21:08.981Z,16.30
2018-09-13T09:22:50.099Z,14.90
2018-09-13T09:23:50.077Z,15.30
2018-09-13T09:24:50.056Z,15.50
2018-09-13T09:25:50.039Z,17.40
2018-09-13T09:26:50.023Z,13.90
2018-09-13T09:27:49.793Z,18.80
2018-09-13T09:28:49.832Z,15.20
2018-09-13T09:29:50.093Z,16.80
2018-09-13T09:30:49.935Z,12.30
2018-09-13T09:31:49.714Z,22.90
2018-09-13T09:32:49.690Z,16.10
2018-09-13T09:33:49.672Z,16.80
2018-09-13T09:34:49.750Z,16.00
2018-09-13T09:35:49.628Z,15.70
2018-09-13T09:36:49.605Z,18.60
2018-09-13T09:38:31.938Z,19.60
2018-09-13T09:39:31.719Z,20.20
2018-09-13T09:40:31.924Z,13.50
2018-09-13T09:42:14.035Z,15.30
2018-09-13T09:43:14.007Z,17.30
2018-09-13T09:44:13.794Z,18.20
2018-09-13T09:45:13.968Z,16.90
2018-09-13T09:46:13.938Z,15.30
2018-09-13T09:47:13.726Z,14.90
2018-09-13T09:48:14.050Z,15.00
2018-09-13T09:49:13.875Z,15.90
2018-09-13T09:50:13.895Z,15.50
2018-09-13T09:51:15.050Z,14.70
2018-09-13T09:52:14.666Z,14.60
2018-09-13T09:53:13.795Z,12.80
2018-09-13T09:54:13.572Z,14.70
2018-09-13T09:55:13.757Z,15.80
2018-09-13T09:56:13.656Z,10.20
2018-09-13T09:57:13.517Z,14.50
2018-09-13T09:58:13.700Z,19.00
2018-09-13T09:59:13.682Z,13.90
2018-09-13T10:03:02.345Z,12.70
2018-09-13T10:04:02.078Z,15.30
2018-09-13T10:05:02.049Z,15.30
2018-09-13T10:06:02.234Z,15.30
2018-09-13T10:07:02.022Z,17.20
2018-09-13T10:08:01.997Z,14.30
2018-09-13T10:09:44.374Z,14.20
2018-09-13T10:10:44.348Z,14.60
2018-09-13T10:12:26.461Z,12.40
2018-09-13T10:13:26.243Z,18.80
2018-09-13T10:14:26.226Z,11.90
2018-09-13T10:15:26.589Z,14.50
2018-09-13T10:16:26.193Z,13.40
2018-09-13T10:17:26.380Z,11.30
2018-09-13T10:18:28.782Z,14.10
2018-09-13T10:19:26.345Z,15.40
2018-09-13T10:20:26.329Z,13.60
2018-09-13T10:21:26.363Z,10.40
2018-09-13T10:22:26.294Z,16.00
2018-09-13T10:23:26.077Z,12.60
2018-09-13T10:24:26.063Z,15.20
2018-09-13T10:25:26.044Z,13.60
2018-09-13T10:26:26.228Z,11.10
2018-09-13T10:27:26.010Z,11.30
2018-09-13T10:28:26.195Z,13.30
2018-09-13T10:29:26.258Z,16.60
2018-09-13T10:30:26.163Z,16.30
2018-09-13T10:31:26.145Z,17.00
2018-09-13T10:32:25.940Z,15.90
2018-09-13T10:33:25.913Z,16.10
2018-09-13T10:34:25.893Z,15.10
2018-09-13T10:35:25.877Z,12.30
2018-09-13T10:36:25.865Z,10.80
2018-09-13T10:37:25.842Z,11.20
2018-09-13T10:38:25.825Z,13.10
2018-09-13T10:39:25.816Z,14.20
2018-09-13T10:40:25.793Z,13.60
2018-09-13T10:41:25.781Z,10.90
2018-09-13T10:42:25.760Z,11.90
2018-09-13T10:43:25.745Z,13.90
2018-09-13T10:44:25.732Z,15.60
2018-09-13T10:45:25.914Z,11.70
2018-09-13T10:46:25.899Z,13.20
2018-09-13T10:47:25.691Z,13.70
2018-09-13T10:48:25.673Z,12.30
2018-09-13T10:49:25.660Z,13.20
2018-09-13T10:50:25.646Z,11.00
2018-09-13T10:51:25.822Z,12.40
2018-09-13T10:52:25.906Z,14.40
2018-09-13T10:53:25.787Z,16.90
2018-09-13T10:54:26.834Z,15.80
2018-09-13T10:55:28.536Z,14.10
2018-09-13T10:56:25.549Z,11.10
2018-09-13T10:57:25.523Z,13.90
2018-09-13T10:58:25.520Z,10.00
2018-09-13T10:59:25.494Z,12.30
2018-09-13T11:00:25.478Z,15.40
2018-09-13T11:01:25.459Z,13.10
2018-09-13T11:02:25.442Z,10.60
2018-09-13T11:03:25.428Z,13.60
2018-09-13T11:04:32.484Z,12.50
2018-09-13T11:05:25.598Z,12.70
2018-09-13T11:06:28.205Z,11.60
2018-09-13T11:07:25.565Z,12.60
2018-09-13T11:08:25.552Z,11.20
2018-09-13T11:09:25.538Z,10.50
2018-09-13T11:10:25.364Z,17.40
2018-09-13T11:11:25.454Z,9.50
2018-09-13T11:12:25.684Z,12.80
2018-09-13T11:13:26.080Z,11.20
2018-09-13T11:15:49.761Z,8.70
2018-09-13T11:16:49.748Z,8.80
2018-09-13T11:17:49.729Z,11.30
2018-09-13T11:18:49.712Z,17.50
2018-09-13T11:19:49.696Z,10.00
2018-09-13T11:20:49.680Z,12.70
2018-09-13T11:21:49.621Z,12.50
2018-09-13T11:22:49.649Z,9.80
2018-09-13T11:23:49.633Z,11.30
2018-09-13T11:24:49.417Z,10.20
2018-09-13T11:25:49.602Z,10.10
2018-09-13T11:26:49.396Z,9.80
2018-09-13T11:27:49.577Z,10.80
2018-09-13T11:28:49.573Z,9.30
2018-09-13T11:30:31.718Z,13.80
2018-09-13T11:31:34.309Z,14.90
2018-09-13T11:32:31.671Z,7.60
2018-09-13T11:38:26.773Z,10.10
2018-09-13T11:41:33.234Z,10.00
2018-09-13T11:42:33.219Z,8.60
2018-09-13T11:43:33.004Z,11.70
2018-09-13T11:44:33.191Z,8.50
2018-09-13T11:45:33.176Z,11.60
2018-09-13T11:47:15.321Z,10.40
2018-09-13T11:51:03.945Z,14.20
2018-09-13T11:52:03.729Z,15.90
2018-09-13T11:53:47.289Z,12.50
2018-09-13T11:54:46.062Z,9.20
2018-09-13T11:55:46.092Z,12.20
2018-09-13T11:56:46.033Z,11.80
2018-09-13T11:57:45.823Z,8.90
2018-09-13T11:58:46.004Z,15.30
2018-09-13T11:59:45.991Z,8.50
2018-09-13T12:01:28.139Z,11.20
2018-09-13T12:03:10.280Z,10.90
2018-09-13T12:04:10.266Z,11.20
2018-09-13T12:05:10.251Z,11.10
2018-09-13T12:06:55.017Z,9.90
2018-09-13T12:07:55.003Z,11.00
2018-09-13T12:09:34.579Z,9.20
2018-09-13T12:11:16.671Z,8.70
2018-09-13T12:12:16.656Z,8.80
2018-09-13T12:13:16.641Z,8.10
2018-09-13T12:14:16.628Z,7.20
2018-09-13T12:15:16.418Z,8.60
2018-09-13T12:16:16.603Z,10.90
2018-09-13T12:17:16.381Z,10.00
2018-09-13T12:18:16.596Z,10.10
2018-09-13T12:19:58.713Z,11.90
2018-09-13T12:21:40.862Z,9.30
2018-09-13T12:22:40.841Z,8.00
2018-09-13T12:23:40.829Z,11.20
2018-09-13T12:24:41.213Z,10.40
2018-09-13T12:25:40.792Z,8.80
2018-09-13T12:26:43.194Z,9.70
2018-09-13T12:32:35.897Z,9.20
2018-09-13T12:35:00.147Z,9.50
2018-09-13T12:36:00.128Z,9.30
2018-09-13T12:36:59.907Z,9.60
2018-09-13T12:40:06.564Z,12.10
2018-09-13T12:46:44.088Z,11.80
2018-09-13T12:47:44.367Z,10.80
2018-09-13T12:49:25.904Z,11.30
2018-09-13T12:52:32.332Z,11.70
2018-09-13T12:53:32.109Z,10.40
2018-09-13T12:54:32.091Z,8.80
2018-09-13T12:55:32.067Z,10.70
2018-09-13T13:07:04.553Z,13.20
2018-09-13T13:08:04.534Z,11.90
2018-09-13T13:09:04.308Z,10.60
2018-09-13T13:10:04.289Z,9.70
2018-09-13T13:11:04.268Z,12.00
2018-09-13T13:12:04.451Z,9.00
2018-09-13T13:13:04.232Z,9.90
2018-09-13T13:14:04.213Z,14.70
2018-09-13T13:15:04.196Z,14.40
2018-09-13T13:16:04.175Z,11.80
2018-09-13T13:17:04.208Z,10.40
2018-09-13T13:18:04.136Z,13.80
2018-09-13T13:19:04.118Z,10.60
2018-09-13T13:20:04.099Z,8.20
2018-09-13T13:21:04.086Z,9.90
2018-09-13T13:22:04.063Z,9.50
2018-09-13T13:23:04.044Z,13.80
2018-09-13T13:24:04.024Z,8.80
2018-09-13T13:25:04.010Z,8.50
2018-09-13T13:26:03.985Z,9.60
2018-09-13T13:27:03.982Z,10.50
2018-09-13T13:28:03.947Z,9.80
2018-09-13T13:29:03.933Z,11.80
2018-09-13T13:30:03.908Z,11.90
2018-09-13T13:31:03.889Z,12.10
2018-09-13T13:32:04.074Z,13.90
2018-09-13T13:33:03.849Z,12.40
2018-09-13T13:34:04.032Z,12.10
2018-09-13T13:35:03.809Z,17.00
2018-09-13T13:36:03.788Z,13.40
2018-09-13T13:37:03.971Z,9.70
2018-09-13T13:38:03.957Z,13.80
2018-09-13T13:39:03.728Z,10.50
2018-09-13T13:40:03.910Z,9.70
2018-09-13T13:41:03.917Z,11.70
2018-09-13T13:42:03.868Z,9.90
2018-09-13T13:43:03.846Z,13.10
2018-09-13T13:44:03.893Z,11.40
2018-09-13T13:45:03.615Z,13.40
2018-09-13T13:46:03.584Z,11.30
2018-09-13T13:47:03.561Z,11.10
2018-09-13T13:48:03.541Z,12.90
2018-09-13T13:49:03.521Z,13.40
2018-09-13T13:50:03.498Z,13.10
2018-09-13T13:51:03.477Z,19.10
2018-09-13T13:52:03.456Z,19.40
2018-09-13T13:53:03.435Z,18.40
2018-09-13T13:54:03.414Z,18.00
2018-09-13T13:55:03.403Z,16.70
2018-09-13T13:56:03.372Z,12.80
2018-09-13T13:57:03.352Z,9.40
2018-09-13T13:58:03.334Z,10.50
2018-09-13T13:59:03.309Z,8.10
2018-09-13T14:00:03.291Z,12.00
2018-09-13T14:01:03.275Z,9.40
2018-09-13T14:02:03.249Z,12.30
2018-09-13T14:03:03.232Z,12.00
2018-09-13T14:04:03.210Z,9.50
2018-09-13T14:05:03.188Z,9.90
2018-09-13T14:06:03.167Z,10.40
2018-09-13T14:07:03.146Z,13.00
2018-09-13T14:08:03.125Z,10.40
2018-09-13T14:09:03.105Z,15.90
2018-09-13T14:10:03.128Z,9.80
2018-09-13T14:11:03.063Z,14.20
2018-09-13T14:12:03.040Z,16.00
2018-09-13T14:13:03.023Z,13.30
2018-09-13T14:14:03.001Z,10.80
2018-09-13T14:15:02.980Z,12.00
2018-09-13T14:16:02.958Z,14.90
2018-09-13T14:17:02.937Z,16.20
2018-09-13T14:18:02.920Z,12.40
2018-09-13T14:19:02.896Z,11.90
2018-09-13T14:20:03.075Z,15.50
2018-09-13T14:21:02.853Z,16.10
2018-09-13T14:22:02.832Z,14.50
2018-09-13T14:23:02.819Z,8.50
2018-09-13T14:24:02.796Z,11.00
2018-09-13T14:25:06.604Z,9.80
2018-09-13T14:26:02.754Z,14.10
2018-09-13T14:27:02.930Z,13.10
2018-09-13T14:28:02.709Z,10.50
2018-09-13T14:29:02.683Z,7.40
2018-09-13T14:30:02.913Z,9.80
2018-09-13T14:31:02.640Z,8.10
2018-09-13T14:32:02.821Z,10.00
2018-09-13T14:33:02.598Z,8.90
2018-09-13T14:34:02.579Z,8.90
2018-09-13T14:35:02.557Z,8.90